Time;durP1;ratioP1;P1;durP2;ratioP2;P2;SDS_P1;SDS_P2;PMS_P1;PMS_P2;Temp;Humidity;BMP_temperature;BMP_pressure;BME280_temperature;BME280_humidity;BME280_pressure;Samples;Min_cycle;Max_cycle;Signal;HPM_P1;HPM_P2
2023/03/06 00:00:59;;;;;;;22.07;10.37;;;;;;;-141.97;54.46;47890.06;5035097;28;20239;-89
2023/03/06 00:03:26;;;;;;;22.90;11.77;;;;;;;-141.97;54.47;47938.09;5016829;28;20615;-89
2023/03/06 00:05:54;;;;;;;28.77;14.50;;;;;;;-141.97;54.35;47822.78;5034773;28;20452;-89
2023/03/06 00:08:20;;;;;;;20.33;9.63;;;;;;;-141.97;53.99;47834.31;5034823;28;20411;-88
2023/03/06 00:10:45;;;;;;;23.10;11.70;;;;;;;-141.97;54.12;47786.25;5016637;28;20404;-89
2023/03/06 00:13:13;;;;;;;29.40;14.70;;;;;;;-141.97;53.68;47824.69;5034375;28;20178;-88
2023/03/06 00:15:39;;;;;;;24.40;11.97;;;;;;;-141.97;53.81;47838.16;5034628;28;20158;-88
2023/03/06 00:18:05;;;;;;;22.27;11.17;;;;;;;-141.97;54.08;47797.78;5034509;28;20416;-88
2023/03/06 00:20:32;;;;;;;22.60;12.03;;;;;;;-141.97;54.02;47834.31;5017442;28;20812;-88
2023/03/06 00:22:57;;;;;;;21.63;10.93;;;;;;;-141.97;53.82;47793.94;5041258;28;20173;-88
2023/03/06 00:25:23;;;;;;;23.27;11.23;;;;;;;-141.97;53.53;47903.50;5036475;28;20531;-89
2023/03/06 00:27:49;;;;;;;22.50;10.90;;;;;;;-141.97;53.97;47918.88;5034568;28;20181;-89
2023/03/06 00:30:17;;;;;;;19.33;10.00;;;;;;;-141.97;54.02;47784.34;5034477;28;20174;-88
2023/03/06 00:32:43;;;;;;;26.40;11.67;;;;;;;-141.97;53.98;47809.31;5017374;28;20162;-89
2023/03/06 00:35:10;;;;;;;25.30;12.60;;;;;;;-141.97;54.31;47872.75;5035610;28;20409;-88
2023/03/06 00:37:36;;;;;;;28.23;12.43;;;;;;;-141.97;54.43;47795.88;5035318;28;20788;-89
2023/03/06 00:40:08;;;;;;;21.70;11.07;;;;;;;-141.97;54.68;47711.28;5036926;28;20416;-87
2023/03/06 00:42:33;;;;;;;19.60;9.97;;;;;;;-141.97;54.35;47745.88;5040995;28;20214;-88
2023/03/06 00:44:59;;;;;;;21.40;10.53;;;;;;;-141.97;54.13;47888.13;5020583;28;20428;-88
2023/03/06 00:47:24;;;;;;;24.30;11.63;;;;;;;-141.97;54.32;47932.34;5037966;28;20231;-88
2023/03/06 00:49:50;;;;;;;31.87;14.63;;;;;;;-141.97;54.55;47817.00;5035313;28;20166;-87
2023/03/06 00:52:15;;;;;;;22.33;11.60;;;;;;;-141.97;54.59;47795.88;5034676;28;20204;-89
2023/03/06 00:54:41;;;;;;;22.23;11.30;;;;;;;-141.97;54.51;47907.34;5034992;28;20548;-88
2023/03/06 00:57:07;;;;;;;25.30;13.47;;;;;;;-141.97;54.43;47822.78;5035110;28;20603;-88
2023/03/06 00:59:32;;;;;;;28.13;14.17;;;;;;;-141.97;54.68;47780.47;5034846;28;20691;-88
2023/03/06 01:01:58;;;;;;;22.20;12.50;;;;;;;-141.97;54.59;47947.72;5035019;28;20167;-89
2023/03/06 01:04:24;;;;;;;26.00;13.30;;;;;;;-141.97;54.45;47895.81;5018362;28;20198;-89
2023/03/06 01:06:50;;;;;;;25.53;13.87;;;;;;;-141.97;54.69;47936.19;5019467;28;20166;-90
2023/03/06 01:09:15;;;;;;;20.23;10.07;;;;;;;-141.97;54.70;47934.25;5036881;28;20491;-88
2023/03/06 01:11:41;;;;;;;18.07;9.37;;;;;;;-141.97;54.78;47861.22;5036394;28;20162;-89
2023/03/06 01:14:06;;;;;;;16.93;8.40;;;;;;;-141.97;54.97;47815.09;5034732;28;20622;-89
2023/03/06 01:16:32;;;;;;;18.93;9.90;;;;;;;-141.97;54.67;47782.41;5017433;28;20591;-88
2023/03/06 01:18:58;;;;;;;20.87;11.13;;;;;;;-141.97;54.74;47765.09;5034623;28;20234;-90
2023/03/06 01:21:23;;;;;;;24.90;12.50;;;;;;;-141.97;55.09;47872.75;5033736;28;20173;-89
2023/03/06 01:23:49;;;;;;;17.63;8.60;;;;;;;-141.97;54.95;47792.03;5035177;28;20226;-88
2023/03/06 01:26:15;;;;;;;22.03;10.93;;;;;;;-141.97;54.26;47899.66;5016763;28;20197;-88
2023/03/06 01:28:40;;;;;;;23.63;11.23;;;;;;;-141.97;54.77;47776.63;5017292;28;20592;-88
2023/03/06 01:31:07;;;;;;;22.57;12.63;;;;;;;-141.97;54.23;47765.09;5015192;28;20162;-89
2023/03/06 01:33:33;;;;;;;23.33;12.10;;;;;;;-141.97;54.29;47828.53;5033486;28;20209;-89
2023/03/06 01:35:58;;;;;;;23.67;10.90;;;;;;;-141.97;54.47;47792.03;5034078;28;20416;-89
2023/03/06 01:38:24;;;;;;;25.10;13.00;;;;;;;-141.97;53.57;47740.13;5034361;28;20905;-88
2023/03/06 01:40:49;;;;;;;22.73;12.40;;;;;;;-141.97;53.99;47826.63;5033518;28;20165;-88
2023/03/06 01:43:27;;;;;;;24.87;12.20;;;;;;;-141.97;54.09;47884.28;5033356;28;20222;-89
2023/03/06 01:46:31;;;;;;;23.97;12.43;;;;;;;-141.97;54.71;47849.69;5015439;28;20674;-89
2023/03/06 01:49:16;;;;;;;21.37;11.20;;;;;;;-141.97;54.97;47830.47;4953282;29;20436;-89
2023/03/06 01:52:10;;;;;;;23.80;12.90;;;;;;;-141.97;55.35;47861.22;4937284;29;20484;-88
2023/03/06 01:54:48;;;;;;;23.50;12.70;;;;;;;-141.97;55.20;47857.38;4937357;29;20428;-89
2023/03/06 01:57:20;;;;;;;26.50;13.63;;;;;;;-141.97;55.99;47745.88;4937838;29;20416;-88
2023/03/06 01:59:51;;;;;;;24.73;13.20;;;;;;;-141.97;55.90;47834.31;4959043;29;20428;-88
2023/03/06 02:02:17;;;;;;;25.43;11.10;;;;;;;-141.97;56.54;47826.63;4955052;29;20409;-89
2023/03/06 02:04:43;;;;;;;25.13;12.70;;;;;;;-141.97;56.69;47853.53;4952509;29;20539;-88
2023/03/06 02:07:09;;;;;;;26.67;13.47;;;;;;;-141.97;57.26;47926.56;4968721;28;20469;-89
2023/03/06 02:09:36;;;;;;;21.17;10.53;;;;;;;-141.97;56.59;47849.69;4971729;28;20266;-89
2023/03/06 02:12:08;;;;;;;21.23;11.73;;;;;;;-141.97;56.22;47888.13;4956160;28;20464;-88
2023/03/06 02:14:34;;;;;;;23.73;12.53;;;;;;;-141.97;56.17;47868.91;4955409;28;20546;-89
2023/03/06 02:17:00;;;;;;;25.90;12.47;;;;;;;-141.97;55.89;47907.34;4971594;28;20411;-88
2023/03/06 02:19:39;;;;;;;25.10;13.37;;;;;;;-141.97;55.93;47776.63;4971143;28;20535;-89
2023/03/06 02:22:04;;;;;;;25.10;12.90;;;;;;;-141.97;56.40;47878.53;4972118;28;20172;-89
2023/03/06 02:24:44;;;;;;;26.60;13.47;;;;;;;-141.97;56.74;47853.53;4972501;28;20594;-88
2023/03/06 02:27:13;;;;;;;26.37;13.67;;;;;;;-141.97;57.04;47853.53;5031866;28;20199;-90
2023/03/06 02:29:39;;;;;;;25.70;13.03;;;;;;;-141.97;57.79;47768.94;5051394;28;20419;-87
2023/03/06 02:32:05;;;;;;;26.37;14.00;;;;;;;-141.97;57.69;47805.47;5054564;28;20403;-87
2023/03/06 02:34:36;;;;;;;26.37;13.83;;;;;;;-141.97;58.82;47857.38;5054289;28;20887;-88
2023/03/06 02:37:07;;;;;;;26.47;12.37;;;;;;;-141.97;58.66;47865.06;5050694;28;20180;-88
2023/03/06 02:39:38;;;;;;;23.07;11.53;;;;;;;-141.97;58.16;47924.66;5052672;28;20582;-88
2023/03/06 02:42:04;;;;;;;24.63;12.60;;;;;;;-141.97;58.10;47730.50;5052157;28;20483;-88
2023/03/06 02:44:32;;;;;;;23.80;11.23;;;;;;;-141.97;57.87;47822.78;5052386;28;20951;-89
2023/03/06 02:46:57;;;;;;;26.77;12.60;;;;;;;-141.97;57.98;47724.75;5051619;28;20614;-87
2023/03/06 02:49:22;;;;;;;28.23;13.33;;;;;;;-141.97;57.46;47874.69;5050359;28;20450;-89
2023/03/06 02:51:48;;;;;;;30.03;14.80;;;;;;;-141.97;57.49;47830.47;5050508;28;20176;-89
2023/03/06 02:54:17;;;;;;;26.93;14.50;;;;;;;-141.97;58.00;47868.91;5033849;28;20178;-88
2023/03/06 02:56:43;;;;;;;25.07;14.37;;;;;;;-141.97;57.78;47807.41;5050333;28;20408;-88
2023/03/06 02:59:08;;;;;;;27.33;13.37;;;;;;;-141.97;58.34;47747.81;5052083;28;20404;-89
2023/03/06 03:01:34;;;;;;;28.63;14.33;;;;;;;-141.97;58.52;47724.75;5052930;28;20566;-89
2023/03/06 03:03:59;;;;;;;29.27;15.00;;;;;;;-141.97;58.88;47809.31;5052619;28;20296;-88
2023/03/06 03:06:24;;;;;;;26.87;14.40;;;;;;;-141.97;58.86;47857.38;5050135;28;20193;-88
2023/03/06 03:08:50;;;;;;;27.53;14.60;;;;;;;-141.97;59.07;47765.09;5050303;28;20180;-88
2023/03/06 03:11:15;;;;;;;27.43;13.20;;;;;;;-141.97;59.58;47792.03;5050144;28;20585;-88
2023/03/06 03:13:41;;;;;;;28.53;12.70;;;;;;;-141.97;60.26;47795.88;5033475;28;20175;-88
2023/03/06 03:16:09;;;;;;;34.67;15.30;;;;;;;-141.97;60.49;47870.81;5051695;28;20184;-88
2023/03/06 03:18:35;;;;;;;30.37;15.27;;;;;;;-141.97;61.03;47811.25;5052152;28;20179;-89
2023/03/06 03:21:05;;;;;;;30.87;14.70;;;;;;;-141.97;60.66;47851.59;5050029;28;20411;-89
2023/03/06 03:23:30;;;;;;;31.03;13.80;;;;;;;-141.97;60.53;47795.88;5051780;28;20166;-88
2023/03/06 03:26:14;;;;;;;28.27;14.17;;;;;;;-141.97;60.36;47866.97;5035069;28;20496;-88
2023/03/06 03:28:39;;;;;;;28.03;14.10;;;;;;;-141.97;60.08;47926.56;5058855;28;20169;-88
2023/03/06 03:31:07;;;;;;;30.50;13.63;;;;;;;-141.97;59.57;47876.59;5051824;28;20763;-89
2023/03/06 03:33:33;;;;;;;29.90;14.50;;;;;;;-141.97;59.76;47884.28;5051349;28;20609;-87
2023/03/06 03:36:00;;;;;;;33.77;16.00;;;;;;;-141.97;60.03;47913.13;5051403;28;20490;-87
2023/03/06 03:38:25;;;;;;;31.10;15.13;;;;;;;-141.97;59.77;47874.69;5051734;28;20165;-89
2023/03/06 03:40:51;;;;;;;32.70;16.70;;;;;;;-141.97;59.48;47868.91;5050074;28;20415;-89
2023/03/06 03:43:16;;;;;;;34.67;16.63;;;;;;;-141.97;60.04;47824.69;5033240;28;20232;-88
2023/03/06 03:45:42;;;;;;;30.87;15.73;;;;;;;-141.97;59.83;47820.84;5052288;28;20209;-88
2023/03/06 03:48:07;;;;;;;30.43;13.63;;;;;;;-141.97;59.78;47820.84;5035482;28;20181;-87
2023/03/06 03:50:33;;;;;;;30.63;15.47;;;;;;;-141.97;60.12;47845.84;5054398;28;20172;-89
2023/03/06 03:52:58;;;;;;;28.57;16.53;;;;;;;-141.97;60.54;47855.44;5034366;28;20201;-89
2023/03/06 03:55:24;;;;;;;33.23;15.87;;;;;;;-141.97;60.09;47878.53;5052160;28;20168;-89
2023/03/06 03:57:50;;;;;;;32.33;15.47;;;;;;;-141.97;59.75;47815.09;5051133;28;20173;-88
2023/03/06 04:00:16;;;;;;;29.67;14.53;;;;;;;-141.97;60.16;47830.47;5049698;28;20637;-88
2023/03/06 04:02:43;;;;;;;30.83;15.97;;;;;;;-141.97;59.40;47836.22;5051197;28;20227;-87
2023/03/06 04:05:09;;;;;;;29.50;14.80;;;;;;;-141.97;59.57;47786.25;5033601;28;20201;-88
2023/03/06 04:07:35;;;;;;;32.73;15.43;;;;;;;-141.97;58.91;47859.28;5033132;28;20423;-87
2023/03/06 04:10:00;;;;;;;30.10;15.37;;;;;;;-141.97;58.83;47792.03;5051208;28;20404;-87
2023/03/06 04:12:26;;;;;;;28.00;14.93;;;;;;;-141.97;59.07;47882.38;5033990;28;20170;-87
2023/03/06 04:14:51;;;;;;;33.33;15.30;;;;;;;-141.97;59.14;47876.59;5034656;28;20166;-88
2023/03/06 04:17:17;;;;;;;31.93;15.83;;;;;;;-141.97;59.46;47953.50;5053908;28;20176;-88
2023/03/06 04:19:42;;;;;;;29.10;15.73;;;;;;;-141.97;59.65;47767.03;5036855;28;20169;-88
2023/03/06 04:22:07;;;;;;;32.53;16.00;;;;;;;-141.97;59.57;47842.00;5055807;28;20259;-88
2023/03/06 04:24:33;;;;;;;29.43;15.20;;;;;;;-141.97;59.80;47718.97;5055509;28;20204;-88
2023/03/06 04:26:58;;;;;;;26.87;14.20;;;;;;;-141.97;60.23;47815.09;5055266;28;20227;-88
2023/03/06 04:29:23;;;;;;;25.47;12.60;;;;;;;-141.97;60.42;47834.31;5054473;28;20307;-88
2023/03/06 04:31:49;;;;;;;27.93;14.17;;;;;;;-141.97;60.81;47876.59;5055635;28;20173;-88
2023/03/06 04:34:14;;;;;;;27.33;12.37;;;;;;;-141.97;61.01;47753.56;5055294;28;20181;-89
2023/03/06 04:36:43;;;;;;;26.67;13.37;;;;;;;-141.97;60.86;47866.97;5037531;28;20239;-87
2023/03/06 04:39:11;;;;;;;23.10;12.03;;;;;;;-141.97;61.04;47899.66;5053577;28;20162;-87
2023/03/06 04:41:36;;;;;;;32.73;15.13;;;;;;;-141.97;61.45;47868.91;5036475;28;20503;-88
2023/03/06 04:44:02;;;;;;;27.60;13.10;;;;;;;-141.97;61.74;47857.38;5054153;28;20459;-88
2023/03/06 04:46:27;;;;;;;31.57;15.00;;;;;;;-141.97;61.40;47853.53;5055717;28;20197;-88
2023/03/06 04:48:53;;;;;;;30.40;13.80;;;;;;;-141.97;61.26;47843.91;5037757;28;20211;-88
2023/03/06 04:51:18;;;;;;;25.93;12.87;;;;;;;-141.97;61.77;47842.00;5054191;28;20653;-88
2023/03/06 04:53:44;;;;;;;31.30;15.23;;;;;;;-141.97;62.28;47834.31;5058757;28;20231;-88
2023/03/06 04:56:09;;;;;;;32.17;14.23;;;;;;;-141.97;62.84;47732.44;5038302;28;20242;-88
2023/03/06 04:58:35;;;;;;;32.03;14.37;;;;;;;-141.97;63.39;47930.41;5037980;28;20239;-88
2023/03/06 05:01:00;;;;;;;28.57;13.90;;;;;;;-141.97;63.73;47865.06;5054628;28;20566;-89
2023/03/06 05:03:26;;;;;;;25.23;12.17;;;;;;;-141.97;64.17;47749.72;5053264;28;20188;-88
2023/03/06 05:05:51;;;;;;;33.17;16.03;;;;;;;-141.97;63.96;47909.28;5036352;28;20249;-89
2023/03/06 05:08:17;;;;;;;32.00;17.00;;;;;;;-141.97;63.96;47751.66;5055479;28;20161;-88
2023/03/06 05:10:43;;;;;;;30.87;15.20;;;;;;;-141.97;63.76;47899.66;5055387;28;20153;-89
2023/03/06 05:13:09;;;;;;;30.43;14.13;;;;;;;-141.97;63.76;47947.72;5054001;28;20168;-88
2023/03/06 05:15:35;;;;;;;35.57;16.23;;;;;;;-141.97;63.68;47792.03;5052161;28;20408;-87
2023/03/06 05:18:00;;;;;;;33.37;15.93;;;;;;;-141.97;63.00;47792.03;5054295;28;20169;-88
2023/03/06 05:20:27;;;;;;;34.70;16.87;;;;;;;-141.97;63.11;47903.50;5035623;28;20703;-88
2023/03/06 05:22:53;;;;;;;33.87;16.03;;;;;;;-141.97;63.45;47772.78;5052368;28;20165;-89
2023/03/06 05:25:18;;;;;;;32.57;16.53;;;;;;;-141.97;63.21;47876.59;5055003;28;20905;-89
2023/03/06 05:27:44;;;;;;;28.83;14.57;;;;;;;-141.97;63.41;47763.19;5053537;28;20177;-89
2023/03/06 05:30:12;;;;;;;36.10;17.20;;;;;;;-141.97;63.01;47788.19;5036983;28;20169;-89
2023/03/06 05:32:37;;;;;;;36.23;17.10;;;;;;;-141.97;63.11;47849.69;5052431;28;20216;-90
2023/03/06 05:35:04;;;;;;;30.13;15.07;;;;;;;-141.97;63.37;47861.22;5054922;28;20834;-89
2023/03/06 05:37:30;;;;;;;25.83;13.83;;;;;;;-141.97;62.75;47838.16;5054032;28;20169;-89
2023/03/06 05:39:56;;;;;;;29.07;13.07;;;;;;;-141.97;62.35;47759.34;5036510;28;20989;-90
2023/03/06 05:42:21;;;;;;;29.13;14.67;;;;;;;-141.97;62.01;47915.03;5032779;28;20452;-88
2023/03/06 05:44:47;;;;;;;31.87;15.40;;;;;;;-141.97;61.39;47840.06;5023763;28;20216;-88
2023/03/06 05:47:12;;;;;;;33.87;15.30;;;;;;;-141.97;61.06;47788.19;5008692;28;20224;-87
2023/03/06 05:49:38;;;;;;;34.80;15.87;;;;;;;-141.97;60.70;47868.91;5027879;28;20178;-88
2023/03/06 05:52:04;;;;;;;33.43;15.90;;;;;;;-141.97;61.15;47757.41;5048672;28;20176;-88
2023/03/06 05:54:31;;;;;;;30.60;15.57;;;;;;;-141.97;60.60;47843.91;5032061;28;20181;-89
2023/03/06 05:56:57;;;;;;;30.63;16.30;;;;;;;-141.97;60.45;47738.19;5033343;28;20425;-89
2023/03/06 05:59:26;;;;;;;31.27;15.90;;;;;;;-141.97;60.19;47765.09;5030162;28;20418;-88
2023/03/06 06:01:55;;;;;;;31.07;14.90;;;;;;;-141.97;59.95;47813.16;5012431;28;20171;-88
2023/03/06 06:04:23;;;;;;;31.87;15.80;;;;;;;-141.97;59.60;47738.19;5012718;28;20476;-85
2023/03/06 06:06:53;;;;;;;31.03;16.03;;;;;;;-141.97;59.08;47822.78;5025075;28;20416;-88
2023/03/06 06:09:19;;;;;;;33.50;16.20;;;;;;;-141.97;59.37;47728.59;5032613;28;20431;-87
2023/03/06 06:11:45;;;;;;;31.67;15.80;;;;;;;-141.97;58.65;47792.03;5030139;28;20467;-87
2023/03/06 06:14:10;;;;;;;35.93;15.63;;;;;;;-141.97;58.64;47916.97;5032573;28;21002;-87
2023/03/06 06:16:36;;;;;;;36.70;15.83;;;;;;;-141.97;58.27;47795.88;5030839;28;20229;-88
2023/03/06 06:19:01;;;;;;;31.23;14.90;;;;;;;-141.97;58.15;47795.88;5032895;28;20188;-88
2023/03/06 06:21:27;;;;;;;34.40;15.40;;;;;;;-141.97;57.29;47915.03;5032898;28;20170;-88
2023/03/06 06:23:52;;;;;;;30.83;16.73;;;;;;;-141.97;57.33;47916.97;5033249;28;20604;-88
2023/03/06 06:26:18;;;;;;;31.87;15.90;;;;;;;-141.97;56.74;47834.31;5033531;28;20277;-88
2023/03/06 06:28:43;;;;;;;30.17;15.10;;;;;;;-141.97;56.28;47893.91;5048777;28;20176;-88
2023/03/06 06:31:11;;;;;;;29.03;14.83;;;;;;;-141.97;56.04;47842.00;5036224;28;20477;-89
2023/03/06 06:34:07;;;;;;;40.47;17.73;;;;;;;-141.97;56.01;47886.22;5025360;28;20630;-90
2023/03/06 06:39:39;;;;;;;37.97;20.13;;;;;;;-141.97;55.77;47768.94;5031090;28;20428;-89
2023/03/06 06:45:04;;;;;;;44.00;23.03;;;;;;;-141.97;55.21;47899.66;5050773;28;20463;-90
2023/03/06 06:47:29;;;;;;;39.60;19.40;;;;;;;-141.97;55.22;47845.84;5042713;28;20552;-89
2023/03/06 06:49:56;;;;;;;35.93;18.20;;;;;;;-141.97;55.99;47901.59;5053089;28;20788;-88
2023/03/06 06:52:23;;;;;;;36.70;18.80;;;;;;;-141.97;55.76;47761.25;5052953;28;20167;-88
2023/03/06 06:54:48;;;;;;;42.67;21.83;;;;;;;-141.97;55.87;47880.44;5034029;28;20415;-88
2023/03/06 06:57:14;;;;;;;30.93;17.07;;;;;;;-141.97;54.60;47838.16;5052236;28;20420;-88
2023/03/06 06:59:40;;;;;;;32.80;16.60;;;;;;;-141.97;54.59;47786.25;5052420;28;20594;-87
2023/03/06 07:02:06;;;;;;;43.57;20.83;;;;;;;-141.97;54.95;47834.31;5052501;28;20444;-88
2023/03/06 07:04:31;;;;;;;46.73;23.10;;;;;;;-141.97;54.56;47911.19;5051641;28;20227;-87
2023/03/06 07:06:57;;;;;;;37.37;19.33;;;;;;;-141.97;54.69;47726.66;5053002;28;20215;-88
2023/03/06 07:09:23;;;;;;;33.83;17.63;;;;;;;-141.97;54.06;47895.81;5051489;28;20208;-88
2023/03/06 07:11:49;;;;;;;36.00;18.30;;;;;;;-141.97;53.62;47715.13;5051747;28;20252;-88
2023/03/06 07:14:14;;;;;;;29.60;16.07;;;;;;;-141.97;52.65;47811.25;5032420;28;20752;-87
2023/03/06 07:16:40;;;;;;;34.40;16.23;;;;;;;-141.97;52.80;47784.34;5051689;28;20211;-88
2023/03/06 07:19:05;;;;;;;34.13;18.07;;;;;;;-141.97;53.77;47849.69;5033341;28;20176;-88
2023/03/06 07:21:33;;;;;;;30.03;17.10;;;;;;;-141.97;53.37;47824.69;5033124;28;20228;-88
2023/03/06 07:24:01;;;;;;;32.27;16.13;;;;;;;-141.97;52.86;47836.22;5053552;28;20157;-88
2023/03/06 07:26:27;;;;;;;32.10;17.80;;;;;;;-141.97;53.27;47718.97;5035399;28;20288;-89
2023/03/06 07:28:53;;;;;;;33.20;16.83;;;;;;;-141.97;52.20;47811.25;5052271;28;20254;-89
2023/03/06 07:31:23;;;;;;;41.43;22.47;;;;;;;-141.97;51.96;47882.38;5052930;28;20180;-89
2023/03/06 07:33:50;;;;;;;31.70;17.00;;;;;;;-141.97;50.53;47849.69;5042935;28;20689;-87
2023/03/06 07:36:15;;;;;;;30.33;15.97;;;;;;;-141.97;50.35;47865.06;5064709;28;20260;-88
2023/03/06 07:38:41;;;;;;;36.83;18.30;;;;;;;-141.97;50.20;47842.00;5064370;28;20621;-88
2023/03/06 07:41:12;;;;;;;26.27;13.77;;;;;;;-141.97;49.22;47807.41;5054892;28;20176;-87
2023/03/06 07:43:37;;;;;;;24.83;13.37;;;;;;;-141.97;49.27;47874.69;5059545;28;20217;-88
2023/03/06 07:46:03;;;;;;;27.23;15.13;;;;;;;-141.97;48.65;47834.31;5066351;28;20185;-88
2023/03/06 07:48:29;;;;;;;24.50;13.13;;;;;;;-141.97;48.99;47851.59;5033227;28;20232;-88
2023/03/06 07:50:57;;;;;;;27.47;14.97;;;;;;;-141.97;49.13;47938.09;5058716;28;20226;-88
2023/03/06 07:53:23;;;;;;;26.40;14.77;;;;;;;-141.97;48.27;47820.84;5072474;28;20172;-88
2023/03/06 07:55:49;;;;;;;26.33;14.27;;;;;;;-141.97;47.32;47961.19;5056420;28;20669;-88
2023/03/06 07:58:14;;;;;;;27.83;15.77;;;;;;;-141.97;46.71;47838.16;5038376;28;20173;-88
2023/03/06 08:00:40;;;;;;;29.60;16.60;;;;;;;-141.97;47.05;47686.31;5055492;28;20275;-88
2023/03/06 08:03:05;;;;;;;29.70;14.93;;;;;;;-141.97;46.47;47870.81;5060589;28;20187;-86
2023/03/06 08:05:31;;;;;;;28.87;16.33;;;;;;;-141.97;47.00;47845.84;5076288;28;20675;-88
2023/03/06 08:07:56;;;;;;;28.70;17.13;;;;;;;-141.97;46.30;47865.06;5046539;28;20175;-88
2023/03/06 08:10:21;;;;;;;31.33;17.70;;;;;;;-141.97;46.35;47793.94;5073100;28;20264;-88
2023/03/06 08:12:47;;;;;;;27.50;15.90;;;;;;;-141.97;45.80;47818.94;5060834;28;20169;-88
2023/03/06 08:15:13;;;;;;;26.87;15.10;;;;;;;-141.97;44.78;47901.59;5074342;28;20169;-89
2023/03/06 08:17:39;;;;;;;37.03;20.50;;;;;;;-141.97;44.09;47957.34;5065038;28;20226;-87
2023/03/06 08:20:05;;;;;;;26.43;14.83;;;;;;;-141.97;44.42;47730.50;5058982;28;20162;-88
2023/03/06 08:22:31;;;;;;;28.00;14.00;;;;;;;-141.97;44.83;47826.63;5069478;28;20241;-87
2023/03/06 08:24:56;;;;;;;28.20;14.40;;;;;;;-141.97;44.74;47795.88;5068952;28;20673;-88
2023/03/06 08:27:22;;;;;;;24.37;12.97;;;;;;;-141.97;45.26;47663.22;5074424;28;20287;-89
2023/03/06 08:29:48;;;;;;;23.53;13.10;;;;;;;-141.97;44.39;47918.88;5044866;28;20641;-89
2023/03/06 08:32:13;;;;;;;22.70;13.03;;;;;;;-141.97;43.35;47738.19;5058641;28;20173;-89
2023/03/06 08:34:39;;;;;;;23.40;13.50;;;;;;;-141.97;43.20;47845.84;5064889;28;20160;-89
2023/03/06 08:37:05;;;;;;;24.93;14.27;;;;;;;-141.97;42.69;47830.47;5043326;28;20180;-89
2023/03/06 08:39:30;;;;;;;34.17;18.33;;;;;;;-141.97;42.37;47770.88;5055304;28;20173;-89
2023/03/06 08:41:56;;;;;;;23.50;13.53;;;;;;;-141.97;42.74;47653.63;5044185;28;20224;-88
2023/03/06 08:44:21;;;;;;;23.70;13.37;;;;;;;-141.97;42.38;47941.94;5075793;28;20243;-87
2023/03/06 08:46:47;;;;;;;25.10;13.77;;;;;;;-141.97;42.19;47949.66;5064460;28;20173;-89
2023/03/06 08:49:12;;;;;;;23.57;14.00;;;;;;;-141.97;41.11;47838.16;5061733;28;21001;-88
2023/03/06 08:51:38;;;;;;;21.77;13.20;;;;;;;-141.97;40.96;47786.25;5058618;28;20180;-88
2023/03/06 08:54:03;;;;;;;26.00;14.40;;;;;;;-141.97;40.59;47930.41;5053853;28;20556;-87
2023/03/06 08:56:33;;;;;;;25.30;14.10;;;;;;;-141.97;40.37;47845.84;5046126;28;20172;-90
2023/03/06 08:59:01;;;;;;;23.40;14.13;;;;;;;-141.97;40.23;47811.25;5063238;28;20222;-88
2023/03/06 09:01:29;;;;;;;25.17;14.37;;;;;;;-141.97;39.90;47926.56;5061234;28;20177;-88
2023/03/06 09:03:57;;;;;;;26.60;14.13;;;;;;;-141.97;39.83;47830.47;5045725;28;20172;-87
2023/03/06 09:06:25;;;;;;;25.20;14.33;;;;;;;-141.97;39.54;47828.53;5078074;28;20220;-88
2023/03/06 09:08:52;;;;;;;25.60;13.87;;;;;;;-141.97;39.22;47738.19;5059142;28;20168;-88
2023/03/06 09:11:20;;;;;;;22.17;14.10;;;;;;;-141.97;38.88;47866.97;5051844;28;20211;-88
2023/03/06 09:13:45;;;;;;;25.93;14.53;;;;;;;-141.97;38.95;47694.00;5078189;28;20183;-87
2023/03/06 09:16:11;;;;;;;29.90;16.13;;;;;;;-141.97;39.13;47803.56;5063862;28;20553;-87
2023/03/06 09:18:37;;;;;;;26.13;15.30;;;;;;;-141.97;38.37;47753.56;5068623;28;20184;-87
2023/03/06 09:21:04;;;;;;;26.63;14.60;;;;;;;-141.97;38.65;47813.16;5069097;28;20178;-87
2023/03/06 09:23:30;;;;;;;25.20;14.90;;;;;;;-141.97;37.77;47801.63;5063039;28;20174;-88
2023/03/06 09:25:57;;;;;;;27.20;14.93;;;;;;;-141.97;37.54;47822.78;5052276;28;20189;-87
2023/03/06 09:28:23;;;;;;;25.70;14.57;;;;;;;-141.97;37.84;47792.03;5060943;28;20245;-87
2023/03/06 09:30:48;;;;;;;27.63;14.90;;;;;;;-141.97;37.38;47730.50;5043941;28;20310;-88
2023/03/06 09:33:15;;;;;;;29.50;15.37;;;;;;;-141.97;37.63;47780.47;5067831;28;20759;-88
2023/03/06 09:35:48;;;;;;;27.63;14.80;;;;;;;-141.97;35.80;47717.06;5057205;28;20162;-87
2023/03/06 09:38:14;;;;;;;27.57;14.50;;;;;;;-141.97;35.37;47799.72;5055005;28;20639;-87
2023/03/06 09:40:39;;;;;;;27.27;14.60;;;;;;;-141.97;34.99;47793.94;5067129;28;20217;-88
2023/03/06 09:43:05;;;;;;;25.97;14.87;;;;;;;-141.97;35.11;47853.53;5040334;28;20709;-88
2023/03/06 09:45:35;;;;;;;26.63;15.13;;;;;;;-141.97;35.18;47805.47;5060925;28;20284;-87
2023/03/06 09:48:12;;;;;;;25.10;14.77;;;;;;;-141.97;34.89;47822.78;5059085;28;20230;-88
2023/03/06 09:50:44;;;;;;;24.97;14.83;;;;;;;-141.97;34.85;47768.94;5054063;28;20600;-87
2023/03/06 09:53:41;;;;;;;27.53;14.30;;;;;;;-141.97;34.45;47834.31;5038815;28;20267;-89
2023/03/06 09:56:22;;;;;;;22.90;14.13;;;;;;;-141.97;33.72;47768.94;5049137;28;20270;-87
2023/03/06 09:58:52;;;;;;;23.80;13.63;;;;;;;-141.97;34.01;47822.78;5066958;28;20173;-87
2023/03/06 10:01:26;;;;;;;26.53;14.60;;;;;;;-141.97;34.30;47799.72;5055885;28;20173;-87
2023/03/06 10:04:00;;;;;;;25.47;14.50;;;;;;;-141.97;34.29;47776.63;5056550;28;20198;-86
2023/03/06 10:06:29;;;;;;;26.13;14.90;;;;;;;-141.97;34.10;47853.53;5040362;28;20197;-87
2023/03/06 10:09:09;;;;;;;24.27;14.13;;;;;;;-141.97;33.90;47815.09;5059685;28;20206;-88
2023/03/06 10:11:42;;;;;;;25.30;14.20;;;;;;;-141.97;33.69;47730.50;5058276;28;20169;-88
2023/03/06 10:14:26;;;;;;;23.87;14.20;;;;;;;-141.97;33.07;47768.94;5040959;28;20184;-87
2023/03/06 10:16:52;;;;;;;24.50;14.50;;;;;;;-141.97;32.48;47551.75;5042190;28;20177;-87
2023/03/06 10:19:19;;;;;;;26.40;14.10;;;;;;;-141.97;32.32;47749.72;5059281;28;20667;-87
2023/03/06 10:21:50;;;;;;;22.70;13.70;;;;;;;-141.97;32.02;47807.41;5058476;28;20272;-87
2023/03/06 10:25:04;;;;;;;23.20;13.43;;;;;;;-141.97;32.44;47728.59;5040075;28;20178;-86
2023/03/06 10:27:46;;;;;;;26.40;14.23;;;;;;;-141.97;31.81;47786.25;4977087;28;20196;-87
2023/03/06 10:30:36;;;;;;;25.07;14.30;;;;;;;-141.97;31.94;47799.72;4976803;28;20258;-87
2023/03/06 10:33:17;;;;;;;21.77;13.17;;;;;;;-141.97;32.16;47803.56;4977194;28;20195;-86
2023/03/06 10:35:48;;;;;;;23.77;13.03;;;;;;;-141.97;32.13;47730.50;4976888;28;20160;-88
2023/03/06 10:38:30;;;;;;;26.23;15.10;;;;;;;-141.97;32.03;47772.78;4975782;28;20316;-88
2023/03/06 10:41:10;;;;;;;21.90;13.33;;;;;;;-141.97;32.31;47763.19;4975014;28;20194;-88
2023/03/06 10:43:38;;;;;;;22.47;13.17;;;;;;;-141.97;32.20;47749.72;4990746;28;20229;-87
2023/03/06 10:46:06;;;;;;;24.10;13.10;;;;;;;-141.97;31.78;47770.88;4981144;28;20282;-88
2023/03/06 10:48:35;;;;;;;21.63;13.10;;;;;;;-141.97;31.96;47749.72;4967675;28;20239;-88
2023/03/06 10:51:20;;;;;;;19.70;12.70;;;;;;;-141.97;32.26;47734.34;4990161;28;20304;-88
2023/03/06 10:53:48;;;;;;;27.10;13.80;;;;;;;-141.97;31.81;47757.41;4975665;28;20196;-87
2023/03/06 10:56:25;;;;;;;25.20;13.53;;;;;;;-141.97;32.03;47751.66;4977289;28;20172;-91
2023/03/06 10:59:07;;;;;;;21.67;12.97;;;;;;;-141.97;31.61;47838.16;4987271;28;20228;-88
2023/03/06 11:01:33;;;;;;;19.73;12.23;;;;;;;-141.97;31.23;47753.56;5006164;28;20182;-87
2023/03/06 11:04:14;;;;;;;20.93;12.97;;;;;;;-141.97;31.44;47795.88;5010269;28;20198;-88
2023/03/06 11:06:40;;;;;;;22.33;13.03;;;;;;;-141.97;32.05;47705.53;5028227;28;20206;-86
2023/03/06 11:09:17;;;;;;;23.20;13.30;;;;;;;-141.97;31.41;47767.03;5044329;28;20166;-88
2023/03/06 11:12:03;;;;;;;21.43;13.07;;;;;;;-141.97;31.81;47699.75;5051559;28;20185;-88